sensor_id;sensor_type;location;lat;lon;timestamp;pressure;altitude;pressure_sealevel;temperature;humidity
75424;BME280;64005;55.160;36.002;2022-12-18T00:01:32;98530.97;;;-3.97;79.62
75424;BME280;64005;55.160;36.002;2022-12-18T00:04:00;98522.00;;;-3.97;79.42
75424;BME280;64005;55.160;36.002;2022-12-18T00:09:03;98508.63;;;-4.04;79.72
75424;BME280;64005;55.160;36.002;2022-12-18T00:11:30;98517.09;;;-4.01;79.52
75424;BME280;64005;55.160;36.002;2022-12-18T00:13:58;98511.88;;;-4.07;79.41
75424;BME280;64005;55.160;36.002;2022-12-18T00:16:26;98504.22;;;-4.10;79.30
75424;BME280;64005;55.160;36.002;2022-12-18T00:18:54;98493.28;;;-4.15;79.75
75424;BME280;64005;55.160;36.002;2022-12-18T00:21:21;98502.13;;;-4.03;79.30
75424;BME280;64005;55.160;36.002;2022-12-18T00:23:48;98506.72;;;-4.04;79.45
75424;BME280;64005;55.160;36.002;2022-12-18T00:26:17;98502.66;;;-4.06;79.28
75424;BME280;64005;55.160;36.002;2022-12-18T00:28:44;98512.97;;;-4.03;79.79
75424;BME280;64005;55.160;36.002;2022-12-18T00:31:13;98508.06;;;-4.06;79.79
75424;BME280;64005;55.160;36.002;2022-12-18T00:33:39;98486.53;;;-4.13;79.45
75424;BME280;64005;55.160;36.002;2022-12-18T00:36:09;98478.03;;;-4.21;79.75
75424;BME280;64005;55.160;36.002;2022-12-18T00:38:36;98490.13;;;-4.07;79.53
75424;BME280;64005;55.160;36.002;2022-12-18T00:41:03;98508.06;;;-4.06;79.69
75424;BME280;64005;55.160;36.002;2022-12-18T00:43:29;98498.28;;;-4.07;79.66
75424;BME280;64005;55.160;36.002;2022-12-18T00:45:54;98473.59;;;-4.27;79.33
75424;BME280;64005;55.160;36.002;2022-12-18T00:48:20;98505.81;;;-4.14;79.61
75424;BME280;64005;55.160;36.002;2022-12-18T00:50:49;98510.41;;;-4.15;79.77
75424;BME280;64005;55.160;36.002;2022-12-18T00:53:16;98519.44;;;-4.09;79.47
75424;BME280;64005;55.160;36.002;2022-12-18T00:55:42;98518.03;;;-4.12;79.81
75424;BME280;64005;55.160;36.002;2022-12-18T00:58:10;98519.38;;;-4.14;79.39
75424;BME280;64005;55.160;36.002;2022-12-18T01:00:36;98518.84;;;-4.11;79.63
75424;BME280;64005;55.160;36.002;2022-12-18T01:03:04;98518.56;;;-4.15;79.42
75424;BME280;64005;55.160;36.002;2022-12-18T01:05:30;98511.72;;;-4.17;79.71
75424;BME280;64005;55.160;36.002;2022-12-18T01:07:56;98527.00;;;-4.11;79.75
75424;BME280;64005;55.160;36.002;2022-12-18T01:10:23;98515.66;;;-4.08;79.42
75424;BME280;64005;55.160;36.002;2022-12-18T01:12:49;98520.50;;;-4.10;79.35
75424;BME280;64005;55.160;36.002;2022-12-18T01:15:15;98521.56;;;-4.11;79.74
75424;BME280;64005;55.160;36.002;2022-12-18T01:17:42;98522.69;;;-4.12;79.53
75424;BME280;64005;55.160;36.002;2022-12-18T01:20:10;98514.53;;;-4.12;79.47
75424;BME280;64005;55.160;36.002;2022-12-18T01:22:36;98516.41;;;-4.13;79.56
75424;BME280;64005;55.160;36.002;2022-12-18T01:25:04;98507.06;;;-4.22;79.52
75424;BME280;64005;55.160;36.002;2022-12-18T01:27:32;98528.34;;;-4.14;79.79
75424;BME280;64005;55.160;36.002;2022-12-18T01:29:58;98515.47;;;-4.23;79.62
75424;BME280;64005;55.160;36.002;2022-12-18T01:32:24;98527.47;;;-4.19;79.25
75424;BME280;64005;55.160;36.002;2022-12-18T01:34:50;98535.91;;;-4.16;79.87
75424;BME280;64005;55.160;36.002;2022-12-18T01:37:16;98543.75;;;-4.19;79.45
75424;BME280;64005;55.160;36.002;2022-12-18T01:39:41;98537.75;;;-4.21;79.94
75424;BME280;64005;55.160;36.002;2022-12-18T01:42:12;98533.97;;;-4.20;79.24
75424;BME280;64005;55.160;36.002;2022-12-18T01:44:59;98521.94;;;-4.24;79.55
75424;BME280;64005;55.160;36.002;2022-12-18T01:47:55;98527.31;;;-4.29;79.65
75424;BME280;64005;55.160;36.002;2022-12-18T01:50:42;98525.94;;;-4.32;79.73
75424;BME280;64005;55.160;36.002;2022-12-18T01:53:20;98523.97;;;-4.36;79.13
75424;BME280;64005;55.160;36.002;2022-12-18T01:55:56;98524.22;;;-4.38;79.91
75424;BME280;64005;55.160;36.002;2022-12-18T01:58:32;98524.22;;;-4.38;80.11
75424;BME280;64005;55.160;36.002;2022-12-18T02:01:02;98520.97;;;-4.40;79.87
75424;BME280;64005;55.160;36.002;2022-12-18T02:03:28;98519.88;;;-4.39;79.76
75424;BME280;64005;55.160;36.002;2022-12-18T02:06:13;98532.38;;;-4.38;79.31
75424;BME280;64005;55.160;36.002;2022-12-18T02:09:10;98517.91;;;-4.44;79.60
75424;BME280;64005;55.160;36.002;2022-12-18T02:17:14;98516.91;;;-4.59;79.46
75424;BME280;64005;55.160;36.002;2022-12-18T02:19:47;98521.50;;;-4.60;80.07
75424;BME280;64005;55.160;36.002;2022-12-18T02:25:23;98529.66;;;-4.60;79.67
75424;BME280;64005;55.160;36.002;2022-12-18T02:27:50;98532.59;;;-4.61;79.87
75424;BME280;64005;55.160;36.002;2022-12-18T02:30:17;98546.16;;;-4.61;80.08
75424;BME280;64005;55.160;36.002;2022-12-18T02:32:49;98565.66;;;-4.64;80.27
75424;BME280;64005;55.160;36.002;2022-12-18T02:35:20;98557.84;;;-4.61;80.17
75424;BME280;64005;55.160;36.002;2022-12-18T02:37:47;98529.66;;;-4.76;79.87
75424;BME280;64005;55.160;36.002;2022-12-18T02:40:15;98568.47;;;-4.59;80.44
75424;BME280;64005;55.160;36.002;2022-12-18T02:42:42;98546.16;;;-4.61;80.08
75424;BME280;64005;55.160;36.002;2022-12-18T02:45:08;98558.97;;;-4.57;79.93
75424;BME280;64005;55.160;36.002;2022-12-18T02:47:39;98549.78;;;-4.56;79.73
75424;BME280;64005;55.160;36.002;2022-12-18T02:55:42;98543.53;;;-4.56;79.70
75424;BME280;64005;55.160;36.002;2022-12-18T02:58:18;98545.94;;;-4.60;79.60
75424;BME280;64005;55.160;36.002;2022-12-18T03:01:11;98548.88;;;-4.61;79.79
75424;BME280;64005;55.160;36.002;2022-12-18T03:06:20;98535.81;;;-4.64;79.56
75424;BME280;64005;55.160;36.002;2022-12-18T03:08:52;98544.75;;;-4.64;79.83
75424;BME280;64005;55.160;36.002;2022-12-18T03:11:19;98558.34;;;-4.64;79.68
75424;BME280;64005;55.160;36.002;2022-12-18T03:14:07;98576.03;;;-4.61;79.78
75424;BME280;64005;55.160;36.002;2022-12-18T03:16:34;98562.44;;;-4.61;80.06
75424;BME280;64005;55.160;36.002;2022-12-18T03:19:04;98557.03;;;-4.61;79.80
75424;BME280;64005;55.160;36.002;2022-12-18T03:21:37;98553.41;;;-4.67;79.97
75424;BME280;64005;55.160;36.002;2022-12-18T03:24:07;98582.44;;;-4.67;79.79
75424;BME280;64005;55.160;36.002;2022-12-18T03:26:35;98576.50;;;-4.64;79.81
75424;BME280;64005;55.160;36.002;2022-12-18T03:29:08;98578.91;;;-4.68;79.65
75424;BME280;64005;55.160;36.002;2022-12-18T03:31:37;98579.16;;;-4.69;80.01
75424;BME280;64005;55.160;36.002;2022-12-18T03:34:09;98579.66;;;-4.72;79.96
75424;BME280;64005;55.160;36.002;2022-12-18T03:36:38;98584.25;;;-4.73;79.97
75424;BME280;64005;55.160;36.002;2022-12-18T03:39:04;98591.81;;;-4.75;79.63
75424;BME280;64005;55.160;36.002;2022-12-18T03:42:01;98586.88;;;-4.78;79.73
75424;BME280;64005;55.160;36.002;2022-12-18T03:45:02;98608.56;;;-4.78;79.61
75424;BME280;64005;55.160;36.002;2022-12-18T03:47:29;98589.50;;;-4.83;79.74
75424;BME280;64005;55.160;36.002;2022-12-18T03:50:11;98600.94;;;-4.81;79.61
75424;BME280;64005;55.160;36.002;2022-12-18T03:52:53;98612.63;;;-4.81;79.79
75424;BME280;64005;55.160;36.002;2022-12-18T03:55:24;98619.59;;;-4.85;79.70
75424;BME280;64005;55.160;36.002;2022-12-18T03:57:53;98609.56;;;-4.84;79.70
75424;BME280;64005;55.160;36.002;2022-12-18T04:00:20;98622.91;;;-4.83;79.87
75424;BME280;64005;55.160;36.002;2022-12-18T04:02:52;98634.25;;;-4.86;79.97
75424;BME280;64005;55.160;36.002;2022-12-18T04:05:20;98630.94;;;-4.88;79.88
75424;BME280;64005;55.160;36.002;2022-12-18T04:07:49;98628.25;;;-4.88;79.77
75424;BME280;64005;55.160;36.002;2022-12-18T04:10:17;98631.78;;;-4.87;79.86
75424;BME280;64005;55.160;36.002;2022-12-18T04:12:43;98633.66;;;-4.88;80.02
75424;BME280;64005;55.160;36.002;2022-12-18T04:15:09;98620.56;;;-4.91;79.77
75424;BME280;64005;55.160;36.002;2022-12-18T04:17:36;98630.38;;;-4.90;79.77
75424;BME280;64005;55.160;36.002;2022-12-18T04:20:02;98613.66;;;-4.98;79.88
75424;BME280;64005;55.160;36.002;2022-12-18T04:22:29;98638.75;;;-4.91;79.75
75424;BME280;64005;55.160;36.002;2022-12-18T04:24:54;98630.75;;;-4.98;79.91
75424;BME280;64005;55.160;36.002;2022-12-18T04:27:21;98634.88;;;-4.95;79.67
75424;BME280;64005;55.160;36.002;2022-12-18T04:29:46;98645.41;;;-4.99;80.03
75424;BME280;64005;55.160;36.002;2022-12-18T04:32:12;98657.47;;;-5.06;79.34
75424;BME280;64005;55.160;36.002;2022-12-18T04:34:38;98662.75;;;-5.00;79.44
75424;BME280;64005;55.160;36.002;2022-12-18T04:37:04;98667.34;;;-5.00;79.56
75424;BME280;64005;55.160;36.002;2022-12-18T04:39:29;98663.22;;;-5.03;80.22
75424;BME280;64005;55.160;36.002;2022-12-18T04:41:55;98673.75;;;-5.06;79.65
75424;BME280;64005;55.160;36.002;2022-12-18T04:44:21;98689.44;;;-5.08;80.13
75424;BME280;64005;55.160;36.002;2022-12-18T04:46:47;98677.19;;;-5.11;80.12
75424;BME280;64005;55.160;36.002;2022-12-18T04:49:12;98683.69;;;-5.12;79.41
75424;BME280;64005;55.160;36.002;2022-12-18T04:51:38;98682.03;;;-5.13;80.13
75424;BME280;64005;55.160;36.002;2022-12-18T04:54:04;98694.78;;;-5.13;79.52
75424;BME280;64005;55.160;36.002;2022-12-18T04:56:31;98672.31;;;-5.26;79.56
75424;BME280;64005;55.160;36.002;2022-12-18T04:58:57;98700.75;;;-5.11;79.94
75424;BME280;64005;55.160;36.002;2022-12-18T05:01:23;98707.75;;;-5.15;80.06
75424;BME280;64005;55.160;36.002;2022-12-18T05:03:51;98717.66;;;-5.21;80.17
75424;BME280;64005;55.160;36.002;2022-12-18T05:06:17;98723.41;;;-5.17;79.66
75424;BME280;64005;55.160;36.002;2022-12-18T05:08:43;98718.00;;;-5.17;79.24
75424;BME280;64005;55.160;36.002;2022-12-18T05:11:11;98729.09;;;-5.19;79.56
75424;BME280;64005;55.160;36.002;2022-12-18T05:13:39;98721.44;;;-5.22;79.46
75424;BME280;64005;55.160;36.002;2022-12-18T05:16:06;98726.84;;;-5.22;79.89
75424;BME280;64005;55.160;36.002;2022-12-18T05:18:32;98743.22;;;-5.17;79.46
75424;BME280;64005;55.160;36.002;2022-12-18T05:20:58;98748.66;;;-5.17;79.31
75424;BME280;64005;55.160;36.002;2022-12-18T05:23:24;98750.78;;;-5.19;79.66
75424;BME280;64005;55.160;36.002;2022-12-18T05:25:55;98764.09;;;-5.17;79.31
75424;BME280;64005;55.160;36.002;2022-12-18T05:28:23;98765.97;;;-5.18;79.75
75424;BME280;64005;55.160;36.002;2022-12-18T05:30:50;98749.84;;;-5.25;78.98
75424;BME280;64005;55.160;36.002;2022-12-18T05:33:21;98768.00;;;-5.25;79.54
75424;BME280;64005;55.160;36.002;2022-12-18T05:35:52;98767.19;;;-5.26;78.93
75424;BME280;64005;55.160;36.002;2022-12-18T05:38:19;98772.50;;;-5.31;79.18
75424;BME280;64005;55.160;36.002;2022-12-18T05:40:47;98767.91;;;-5.30;79.27
75424;BME280;64005;55.160;36.002;2022-12-18T05:43:13;98765.78;;;-5.28;79.01
75424;BME280;64005;55.160;36.002;2022-12-18T05:45:40;98785.81;;;-5.29;78.73
75424;BME280;64005;55.160;36.002;2022-12-18T05:48:07;98773.31;;;-5.30;78.47
75424;BME280;64005;55.160;36.002;2022-12-18T05:50:37;98770.50;;;-5.35;78.66
75424;BME280;64005;55.160;36.002;2022-12-18T05:53:04;98776.53;;;-5.33;78.89
75424;BME280;64005;55.160;36.002;2022-12-18T05:55:37;98775.94;;;-5.35;78.97
75424;BME280;64005;55.160;36.002;2022-12-18T05:58:04;98802.81;;;-5.34;78.42
75424;BME280;64005;55.160;36.002;2022-12-18T06:00:32;98824.50;;;-5.34;79.09
75424;BME280;64005;55.160;36.002;2022-12-18T06:02:58;98829.09;;;-5.34;78.72
75424;BME280;64005;55.160;36.002;2022-12-18T06:05:25;98841.81;;;-5.35;78.26
75424;BME280;64005;55.160;36.002;2022-12-18T06:07:51;98833.91;;;-5.36;78.12
75424;BME280;64005;55.160;36.002;2022-12-18T06:10:17;98843.69;;;-5.35;78.73
75424;BME280;64005;55.160;36.002;2022-12-18T06:12:43;98849.13;;;-5.35;78.71
75424;BME280;64005;55.160;36.002;2022-12-18T06:15:09;98841.22;;;-5.48;78.01
75424;BME280;64005;55.160;36.002;2022-12-18T06:17:35;98863.13;;;-5.38;78.26
75424;BME280;64005;55.160;36.002;2022-12-18T06:20:01;98858.31;;;-5.36;77.78
75424;BME280;64005;55.160;36.002;2022-12-18T06:22:31;98876.22;;;-5.35;78.18
75424;BME280;64005;55.160;36.002;2022-12-18T06:24:57;98886.25;;;-5.36;77.51
75424;BME280;64005;55.160;36.002;2022-12-18T06:27:23;98893.09;;;-5.33;77.61
75424;BME280;64005;55.160;36.002;2022-12-18T06:29:49;98908.03;;;-5.31;77.68
75424;BME280;64005;55.160;36.002;2022-12-18T06:32:14;98903.22;;;-5.29;77.44
75424;BME280;64005;55.160;36.002;2022-12-18T06:34:40;98891.91;;;-5.26;77.55
75424;BME280;64005;55.160;36.002;2022-12-18T06:37:06;98902.16;;;-5.28;77.28
75424;BME280;64005;55.160;36.002;2022-12-18T06:39:32;98905.91;;;-5.29;77.29
75424;BME280;64005;55.160;36.002;2022-12-18T06:41:57;98926.19;;;-5.31;76.56
75424;BME280;64005;55.160;36.002;2022-12-18T06:44:23;98917.81;;;-5.30;76.77
75424;BME280;64005;55.160;36.002;2022-12-18T06:46:49;98926.19;;;-5.31;76.94
75424;BME280;64005;55.160;36.002;2022-12-18T06:49:15;98922.41;;;-5.30;76.59
75424;BME280;64005;55.160;36.002;2022-12-18T06:51:41;98931.38;;;-5.30;76.84
75424;BME280;64005;55.160;36.002;2022-12-18T06:54:07;98928.66;;;-5.30;76.23
75424;BME280;64005;55.160;36.002;2022-12-18T06:56:34;98939.63;;;-5.25;76.76
75424;BME280;64005;55.160;36.002;2022-12-18T06:59:00;98925.22;;;-5.25;76.84
75424;BME280;64005;55.160;36.002;2022-12-18T07:01:26;98926.19;;;-5.31;76.30
75424;BME280;64005;55.160;36.002;2022-12-18T07:03:53;98942.00;;;-5.28;75.81
75424;BME280;64005;55.160;36.002;2022-12-18T07:06:22;98963.19;;;-5.25;75.99
75424;BME280;64005;55.160;36.002;2022-12-18T07:08:49;98931.03;;;-5.33;75.76
75424;BME280;64005;55.160;36.002;2022-12-18T07:11:16;98928.19;;;-5.38;75.86
75424;BME280;64005;55.160;36.002;2022-12-18T07:13:43;98960.03;;;-5.22;76.27
75424;BME280;64005;55.160;36.002;2022-12-18T07:16:11;98959.78;;;-5.21;75.75
75424;BME280;64005;55.160;36.002;2022-12-18T07:18:38;98961.19;;;-5.18;76.11
75424;BME280;64005;55.160;36.002;2022-12-18T07:21:08;98956.25;;;-5.21;75.90
75424;BME280;64005;55.160;36.002;2022-12-18T07:23:35;98955.44;;;-5.22;75.89
75424;BME280;64005;55.160;36.002;2022-12-18T07:26:06;98961.19;;;-5.18;75.82
75424;BME280;64005;55.160;36.002;2022-12-18T07:28:32;98970.97;;;-5.17;75.57
75424;BME280;64005;55.160;36.002;2022-12-18T07:31:03;98970.97;;;-5.17;75.49
75424;BME280;64005;55.160;36.002;2022-12-18T07:33:29;98980.31;;;-5.13;75.06
75424;BME280;64005;55.160;36.002;2022-12-18T07:35:55;98975.47;;;-5.11;75.46
75424;BME280;64005;55.160;36.002;2022-12-18T07:38:21;98970.75;;;-5.04;74.95
75424;BME280;64005;55.160;36.002;2022-12-18T07:40:46;98972.16;;;-5.01;74.76
75424;BME280;64005;55.160;36.002;2022-12-18T07:43:12;98986.78;;;-4.91;74.96
75424;BME280;64005;55.160;36.002;2022-12-18T07:45:39;98988.66;;;-4.91;74.93
75424;BME280;64005;55.160;36.002;2022-12-18T07:48:05;98997.16;;;-4.88;74.82
75424;BME280;64005;55.160;36.002;2022-12-18T07:50:30;98991.75;;;-4.88;74.97
75424;BME280;64005;55.160;36.002;2022-12-18T07:52:56;98999.38;;;-4.85;74.74
75424;BME280;64005;55.160;36.002;2022-12-18T07:55:22;99015.31;;;-4.76;74.69
75424;BME280;64005;55.160;36.002;2022-12-18T07:57:47;99002.81;;;-4.77;74.50
75424;BME280;64005;55.160;36.002;2022-12-18T08:00:14;98997.16;;;-4.76;74.38
75424;BME280;64005;55.160;36.002;2022-12-18T08:02:40;99015.56;;;-4.66;74.43
75424;BME280;64005;55.160;36.002;2022-12-18T08:05:06;99017.44;;;-4.67;74.81
75424;BME280;64005;55.160;36.002;2022-12-18T08:07:31;99016.63;;;-4.67;74.50
75424;BME280;64005;55.160;36.002;2022-12-18T08:09:57;99036.22;;;-4.65;74.20
75424;BME280;64005;55.160;36.002;2022-12-18T08:12:23;99036.06;;;-4.70;74.66
75424;BME280;64005;55.160;36.002;2022-12-18T08:14:49;99040.44;;;-4.69;74.67
75424;BME280;64005;55.160;36.002;2022-12-18T08:17:14;99042.94;;;-4.68;74.95
75424;BME280;64005;55.160;36.002;2022-12-18T08:19:40;99046.81;;;-4.64;74.89
75424;BME280;64005;55.160;36.002;2022-12-18T08:22:07;99032.06;;;-4.68;74.96
75424;BME280;64005;55.160;36.002;2022-12-18T08:24:33;99048.97;;;-4.66;75.26
75424;BME280;64005;55.160;36.002;2022-12-18T08:26:59;99054.63;;;-4.67;75.49
75424;BME280;64005;55.160;36.002;2022-12-18T08:29:25;99061.31;;;-4.70;75.32
75424;BME280;64005;55.160;36.002;2022-12-18T08:31:50;99054.50;;;-4.72;75.37
75424;BME280;64005;55.160;36.002;2022-12-18T08:34:16;99069.25;;;-4.68;75.14
75424;BME280;64005;55.160;36.002;2022-12-18T08:36:42;99067.13;;;-4.66;75.11
75424;BME280;64005;55.160;36.002;2022-12-18T08:39:07;99075.00;;;-4.65;75.27
75424;BME280;64005;55.160;36.002;2022-12-18T08:41:33;99064.16;;;-4.65;75.85
75424;BME280;64005;55.160;36.002;2022-12-18T08:43:59;99083.63;;;-4.56;75.40
75424;BME280;64005;55.160;36.002;2022-12-18T08:46:43;99064.28;;;-4.60;75.98
75424;BME280;64005;55.160;36.002;2022-12-18T08:49:11;99086.34;;;-4.56;75.80
75424;BME280;64005;55.160;36.002;2022-12-18T08:51:38;99092.72;;;-4.51;75.89
75424;BME280;64005;55.160;36.002;2022-12-18T08:54:05;99094.97;;;-4.48;75.82
75424;BME280;64005;55.160;36.002;2022-12-18T08:56:31;99104.28;;;-4.44;75.74
75424;BME280;64005;55.160;36.002;2022-12-18T08:58:57;99090.00;;;-4.39;76.17
75424;BME280;64005;55.160;36.002;2022-12-18T09:01:23;99088.59;;;-4.42;75.94
75424;BME280;64005;55.160;36.002;2022-12-18T09:03:50;99107.47;;;-4.35;76.14
75424;BME280;64005;55.160;36.002;2022-12-18T09:06:18;99098.72;;;-4.37;76.08
75424;BME280;64005;55.160;36.002;2022-12-18T09:08:44;99102.16;;;-4.42;75.53
75424;BME280;64005;55.160;36.002;2022-12-18T09:11:19;99118.09;;;-4.33;76.15
75424;BME280;64005;55.160;36.002;2022-12-18T09:13:45;99116.22;;;-4.33;75.98
75424;BME280;64005;55.160;36.002;2022-12-18T09:16:11;99117.38;;;-4.29;75.97
75424;BME280;64005;55.160;36.002;2022-12-18T09:18:37;99113.94;;;-4.36;75.62
75424;BME280;64005;55.160;36.002;2022-12-18T09:21:11;99128.34;;;-4.35;76.05
75424;BME280;64005;55.160;36.002;2022-12-18T09:23:37;99134.13;;;-4.32;76.36
75424;BME280;64005;55.160;36.002;2022-12-18T09:26:03;99134.72;;;-4.30;76.43
75424;BME280;64005;55.160;36.002;2022-12-18T09:28:29;99131.41;;;-4.32;76.00
75424;BME280;64005;55.160;36.002;2022-12-18T09:30:55;99140.75;;;-4.28;76.17
75424;BME280;64005;55.160;36.002;2022-12-18T09:35:56;99149.97;;;-4.29;76.45
75424;BME280;64005;55.160;36.002;2022-12-18T09:38:21;99141.59;;;-4.27;76.36
75424;BME280;64005;55.160;36.002;2022-12-18T09:40:51;99152.09;;;-4.19;76.11
75424;BME280;64005;55.160;36.002;2022-12-18T09:46:11;99172.72;;;-4.18;75.95
75424;BME280;64005;55.160;36.002;2022-12-18T09:48:45;99170.84;;;-4.18;76.25
75424;BME280;64005;55.160;36.002;2022-12-18T09:51:16;99176.28;;;-4.18;76.21
75424;BME280;64005;55.160;36.002;2022-12-18T09:54:00;99171.56;;;-4.22;76.40
75424;BME280;64005;55.160;36.002;2022-12-18T09:56:29;99167.56;;;-4.20;76.68
75424;BME280;64005;55.160;36.002;2022-12-18T09:59:00;99179.59;;;-4.16;76.39
75424;BME280;64005;55.160;36.002;2022-12-18T10:01:28;99182.06;;;-4.14;76.28
75424;BME280;64005;55.160;36.002;2022-12-18T10:03:54;99180.66;;;-4.17;76.70
75424;BME280;64005;55.160;36.002;2022-12-18T10:06:32;99186.19;;;-4.12;76.78
75424;BME280;64005;55.160;36.002;2022-12-18T10:09:17;99183.25;;;-4.10;76.78
75424;BME280;64005;55.160;36.002;2022-12-18T10:14:46;99201.91;;;-4.14;76.47
75424;BME280;64005;55.160;36.002;2022-12-18T10:22:53;99193.88;;;-4.09;76.85
75424;BME280;64005;55.160;36.002;2022-12-18T10:27:56;99196.25;;;-4.01;77.07
75424;BME280;64005;55.160;36.002;2022-12-18T10:30:24;99201.91;;;-4.02;77.06
75424;BME280;64005;55.160;36.002;2022-12-18T10:32:51;99199.41;;;-4.04;77.22
75424;BME280;64005;55.160;36.002;2022-12-18T10:35:23;99196.72;;;-4.04;77.14
75424;BME280;64005;55.160;36.002;2022-12-18T10:38:25;99207.94;;;-4.00;77.36
75424;BME280;64005;55.160;36.002;2022-12-18T10:41:04;99204.03;;;-4.04;77.26
75424;BME280;64005;55.160;36.002;2022-12-18T10:43:36;99211.13;;;-4.03;77.52
75424;BME280;64005;55.160;36.002;2022-12-18T10:46:20;99201.56;;;-4.06;77.66
75424;BME280;64005;55.160;36.002;2022-12-18T10:48:48;99219.03;;;-4.02;77.44
75424;BME280;64005;55.160;36.002;2022-12-18T10:53:57;99220.94;;;-4.02;77.48
75424;BME280;64005;55.160;36.002;2022-12-18T10:56:27;99227.78;;;-3.99;77.37
75424;BME280;64005;55.160;36.002;2022-12-18T10:59:03;99226.84;;;-3.93;77.93
75424;BME280;64005;55.160;36.002;2022-12-18T11:01:56;99229.19;;;-3.97;77.15
75424;BME280;64005;55.160;36.002;2022-12-18T11:07:05;99238.41;;;-3.98;77.48
75424;BME280;64005;55.160;36.002;2022-12-18T11:09:33;99242.53;;;-3.95;77.90
75424;BME280;64005;55.160;36.002;2022-12-18T11:12:02;99253.75;;;-3.92;77.38
75424;BME280;64005;55.160;36.002;2022-12-18T11:14:45;99245.38;;;-3.90;77.60
75424;BME280;64005;55.160;36.002;2022-12-18T11:17:28;99249.28;;;-3.86;77.34
75424;BME280;64005;55.160;36.002;2022-12-18T11:22:29;99257.78;;;-3.94;77.89
75424;BME280;64005;55.160;36.002;2022-12-18T11:25:02;99276.47;;;-3.86;77.78
75424;BME280;64005;55.160;36.002;2022-12-18T11:27:29;99281.19;;;-3.82;77.56
75424;BME280;64005;55.160;36.002;2022-12-18T11:30:29;99286.25;;;-3.85;77.65
75424;BME280;64005;55.160;36.002;2022-12-18T11:33:09;99290.88;;;-3.86;77.33
75424;BME280;64005;55.160;36.002;2022-12-18T11:35:47;99297.13;;;-3.85;77.58
75424;BME280;64005;55.160;36.002;2022-12-18T11:40:56;99304.22;;;-3.84;77.73
75424;BME280;64005;55.160;36.002;2022-12-18T11:43:31;99310.69;;;-3.85;77.97
75424;BME280;64005;55.160;36.002;2022-12-18T11:46:17;99315.56;;;-3.87;78.04
75424;BME280;64005;55.160;36.002;2022-12-18T11:49:25;99327.50;;;-3.88;77.84
75424;BME280;64005;55.160;36.002;2022-12-18T11:54:50;99332.31;;;-3.90;77.66
75424;BME280;64005;55.160;36.002;2022-12-18T12:03:05;99345.09;;;-3.91;77.78
75424;BME280;64005;55.160;36.002;2022-12-18T12:07:46;99357.13;;;-3.98;78.16
75424;BME280;64005;55.160;36.002;2022-12-18T12:18:13;99374.84;;;-3.96;77.89
75424;BME280;64005;55.160;36.002;2022-12-18T12:23:44;99384.88;;;-3.96;78.16
75424;BME280;64005;55.160;36.002;2022-12-18T12:26:42;99391.38;;;-3.97;78.51
75424;BME280;64005;55.160;36.002;2022-12-18T12:32:11;99407.22;;;-4.06;78.36
75424;BME280;64005;55.160;36.002;2022-12-18T12:39:38;99425.88;;;-3.98;78.73
75424;BME280;64005;55.160;36.002;2022-12-18T12:42:23;99414.16;;;-3.98;78.77
75424;BME280;64005;55.160;36.002;2022-12-18T12:45:06;99431.09;;;-3.96;78.63
75424;BME280;64005;55.160;36.002;2022-12-18T12:47:41;99424.47;;;-4.01;78.71
75424;BME280;64005;55.160;36.002;2022-12-18T12:50:15;99449.66;;;-3.93;78.87
75424;BME280;64005;55.160;36.002;2022-12-18T12:52:52;99447.59;;;-3.98;78.31
75424;BME280;64005;55.160;36.002;2022-12-18T12:55:25;99467.84;;;-3.94;78.69
75424;BME280;64005;55.160;36.002;2022-12-18T12:58:43;99463.09;;;-3.98;78.56
75424;BME280;64005;55.160;36.002;2022-12-18T13:06:37;99472.31;;;-3.99;79.12
75424;BME280;64005;55.160;36.002;2022-12-18T13:09:06;99479.63;;;-4.00;79.00
75424;BME280;64005;55.160;36.002;2022-12-18T13:11:38;99482.72;;;-3.96;79.02
75424;BME280;64005;55.160;36.002;2022-12-18T13:14:26;99491.34;;;-3.99;78.56
75424;BME280;64005;55.160;36.002;2022-12-18T13:19:50;99512.25;;;-4.00;78.61
75424;BME280;64005;55.160;36.002;2022-12-18T13:22:28;99524.16;;;-4.01;78.74
75424;BME280;64005;55.160;36.002;2022-12-18T13:24:54;99513.75;;;-4.04;78.82
75424;BME280;64005;55.160;36.002;2022-12-18T13:43:49;99564.38;;;-4.10;78.34
75424;BME280;64005;55.160;36.002;2022-12-18T13:46:29;99551.88;;;-4.29;77.91
75424;BME280;64005;55.160;36.002;2022-12-18T13:51:25;99586.41;;;-4.18;78.05
75424;BME280;64005;55.160;36.002;2022-12-18T13:53:54;99578.13;;;-4.23;77.69
75424;BME280;64005;55.160;36.002;2022-12-18T13:56:29;99605.06;;;-4.21;77.40
75424;BME280;64005;55.160;36.002;2022-12-18T13:59:18;99583.41;;;-4.28;76.87
75424;BME280;64005;55.160;36.002;2022-12-18T14:04:25;99606.63;;;-4.32;77.23
75424;BME280;64005;55.160;36.002;2022-12-18T14:07:14;99621.72;;;-4.36;77.25
75424;BME280;64005;55.160;36.002;2022-12-18T14:09:46;99624.66;;;-4.37;76.87
75424;BME280;64005;55.160;36.002;2022-12-18T14:12:28;99625.13;;;-4.41;76.61
75424;BME280;64005;55.160;36.002;2022-12-18T14:17:57;99641.47;;;-4.47;76.61
75424;BME280;64005;55.160;36.002;2022-12-18T14:20:25;99639.34;;;-4.45;77.18
75424;BME280;64005;55.160;36.002;2022-12-18T14:22:53;99641.00;;;-4.44;77.10
75424;BME280;64005;55.160;36.002;2022-12-18T14:30:41;99658.81;;;-4.48;76.42
75424;BME280;64005;55.160;36.002;2022-12-18T14:33:19;99659.03;;;-4.50;76.56
75424;BME280;64005;55.160;36.002;2022-12-18T14:36:01;99657.00;;;-4.54;76.82
75424;BME280;64005;55.160;36.002;2022-12-18T14:38:35;99666.63;;;-4.58;77.43
75424;BME280;64005;55.160;36.002;2022-12-18T14:41:06;99674.38;;;-4.62;77.00
75424;BME280;64005;55.160;36.002;2022-12-18T14:43:37;99676.09;;;-4.67;77.09
75424;BME280;64005;55.160;36.002;2022-12-18T14:46:05;99672.56;;;-4.68;76.93
75424;BME280;64005;55.160;36.002;2022-12-18T14:51:17;99679.25;;;-4.70;77.03
75424;BME280;64005;55.160;36.002;2022-12-18T14:53:46;99678.88;;;-4.74;77.11
75424;BME280;64005;55.160;36.002;2022-12-18T14:56:25;99686.41;;;-4.76;76.98
75424;BME280;64005;55.160;36.002;2022-12-18T14:59:03;99682.22;;;-4.78;76.94
75424;BME280;64005;55.160;36.002;2022-12-18T15:01:33;99687.28;;;-4.82;76.82
75424;BME280;64005;55.160;36.002;2022-12-18T15:04:01;99680.84;;;-4.88;76.63